Portada
METAR-TAF:

METAR-TAF

Aeroports :

Leh, Índia

latitud: 34-08-09N, longitud: 077-32-47E, altitud: 3256 m

Observació

L'informe es va fer fa 59 minuts, a les 04:30 UTC
Vent 1 kt amb direcció variable
Temperatura
Pressió 1032 hPa
Visibilitat: 6000 m
Escasses núvols a una alçada de 10000 ft

METAR: VILH 140430Z VRB01KT 6000 FEW100 14/-1 Q1032 NO SIG

Hora: 10:59 (05:29 UTC)

Pronòstic

L'informe es va fer fa 25 hores i 59 minuts, a les 03:30 UTC
Pronòstic vàlid del 13 a les 06 UTC al 13 a les 18 UTC
Vent 5 kt del Oest/Sud-Oest
Visibilitat: 6000 m
Escasses núvols a una alçada de 7000 ft
Evolucionant progressivament
l' 13 a les 09 UTC al 13 a les 12 UTC
Vent 10 kt del Oest/Nord-Oest
Núvols disperses a una alçada de 7000 ft

TAF: VILH 130330Z 1306/1318 25005KT 6000 FEW070 BECMG 1309/1312 29010KT SCT070

Observacions i pronòstics meteorològics de més de 4000 aeroports (METAR i TAF).

Les estacions disponibles són els punts grocs i vermells al mapa.

Posi el ratolí al punt desitjat per veure el nom de l'estació.

Feu clic per veure les observacions i els pronòstics meteorològics.

Per canviar el mapa: feu clic els botons verds amb una creu de color negre per apropar; al botó verd amb un guió per allunyar la imatge; o en les fletxes verdes per a mapes adjacents.


METAR-TAF: